sensor_id;sensor_type;location;lat;lon;timestamp;temperature;humidity
21493;DHT22;10908;50.690;4.400;2023-11-18T00:00:05;7.10;86.30
21493;DHT22;10908;50.690;4.400;2023-11-18T00:02:36;7.20;86.20
21493;DHT22;10908;50.690;4.400;2023-11-18T00:05:02;7.30;85.70
21493;DHT22;10908;50.690;4.400;2023-11-18T00:07:27;7.30;85.60
21493;DHT22;10908;50.690;4.400;2023-11-18T00:09:54;7.30;85.10
21493;DHT22;10908;50.690;4.400;2023-11-18T00:12:19;7.30;85.10
21493;DHT22;10908;50.690;4.400;2023-11-18T00:14:46;7.30;85.10
21493;DHT22;10908;50.690;4.400;2023-11-18T00:17:12;7.30;84.90
21493;DHT22;10908;50.690;4.400;2023-11-18T00:19:38;7.30;84.80
21493;DHT22;10908;50.690;4.400;2023-11-18T00:22:04;7.30;84.80
21493;DHT22;10908;50.690;4.400;2023-11-18T00:24:31;7.30;84.80
21493;DHT22;10908;50.690;4.400;2023-11-18T00:27:00;7.30;85.00
21493;DHT22;10908;50.690;4.400;2023-11-18T00:29:32;7.10;85.30
21493;DHT22;10908;50.690;4.400;2023-11-18T00:31:58;7.20;85.50
21493;DHT22;10908;50.690;4.400;2023-11-18T00:34:23;7.30;85.50
21493;DHT22;10908;50.690;4.400;2023-11-18T00:36:49;7.40;85.30
21493;DHT22;10908;50.690;4.400;2023-11-18T00:39:14;7.60;85.00
21493;DHT22;10908;50.690;4.400;2023-11-18T00:41:40;7.50;84.70
21493;DHT22;10908;50.690;4.400;2023-11-18T00:44:05;7.50;84.40
21493;DHT22;10908;50.690;4.400;2023-11-18T00:46:34;7.40;84.30
21493;DHT22;10908;50.690;4.400;2023-11-18T00:49:01;7.30;84.70
21493;DHT22;10908;50.690;4.400;2023-11-18T00:51:27;7.40;84.60
21493;DHT22;10908;50.690;4.400;2023-11-18T00:53:53;7.40;84.80
21493;DHT22;10908;50.690;4.400;2023-11-18T00:56:20;7.40;84.80
21493;DHT22;10908;50.690;4.400;2023-11-18T00:58:50;7.30;84.80
21493;DHT22;10908;50.690;4.400;2023-11-18T01:01:16;7.50;84.80
21493;DHT22;10908;50.690;4.400;2023-11-18T01:03:45;7.50;84.70
21493;DHT22;10908;50.690;4.400;2023-11-18T01:06:11;7.50;84.50
21493;DHT22;10908;50.690;4.400;2023-11-18T01:08:37;7.30;84.50
21493;DHT22;10908;50.690;4.400;2023-11-18T01:11:03;7.40;84.70
21493;DHT22;10908;50.690;4.400;2023-11-18T01:13:30;7.40;84.80
21493;DHT22;10908;50.690;4.400;2023-11-18T01:15:57;7.20;84.80
21493;DHT22;10908;50.690;4.400;2023-11-18T01:18:23;7.20;85.30
21493;DHT22;10908;50.690;4.400;2023-11-18T01:20:48;7.30;85.50
21493;DHT22;10908;50.690;4.400;2023-11-18T01:23:14;7.30;85.40
21493;DHT22;10908;50.690;4.400;2023-11-18T01:25:40;7.30;85.30
21493;DHT22;10908;50.690;4.400;2023-11-18T01:28:06;7.50;85.20
21493;DHT22;10908;50.690;4.400;2023-11-18T01:30:32;7.50;84.90
21493;DHT22;10908;50.690;4.400;2023-11-18T01:32:58;7.40;84.90
21493;DHT22;10908;50.690;4.400;2023-11-18T01:35:26;7.30;85.10
21493;DHT22;10908;50.690;4.400;2023-11-18T01:37:53;7.30;85.40
21493;DHT22;10908;50.690;4.400;2023-11-18T01:40:20;7.30;85.60
21493;DHT22;10908;50.690;4.400;2023-11-18T01:42:46;7.30;85.60
21493;DHT22;10908;50.690;4.400;2023-11-18T01:45:12;7.40;85.50
21493;DHT22;10908;50.690;4.400;2023-11-18T01:47:40;7.50;85.20
21493;DHT22;10908;50.690;4.400;2023-11-18T01:50:09;7.50;84.90
21493;DHT22;10908;50.690;4.400;2023-11-18T01:52:36;7.50;84.90
21493;DHT22;10908;50.690;4.400;2023-11-18T01:55:03;7.50;84.80
21493;DHT22;10908;50.690;4.400;2023-11-18T01:57:35;7.50;84.70
21493;DHT22;10908;50.690;4.400;2023-11-18T02:00:02;7.60;84.70
21493;DHT22;10908;50.690;4.400;2023-11-18T02:02:32;7.50;84.70
21493;DHT22;10908;50.690;4.400;2023-11-18T02:04:58;7.50;84.70
21493;DHT22;10908;50.690;4.400;2023-11-18T02:07:30;7.50;85.00
21493;DHT22;10908;50.690;4.400;2023-11-18T02:09:55;7.50;85.00
21493;DHT22;10908;50.690;4.400;2023-11-18T02:12:55;7.50;84.90
21493;DHT22;10908;50.690;4.400;2023-11-18T02:15:24;7.50;84.70
21493;DHT22;10908;50.690;4.400;2023-11-18T02:17:52;7.50;84.70
21493;DHT22;10908;50.690;4.400;2023-11-18T02:20:19;7.50;84.90
21493;DHT22;10908;50.690;4.400;2023-11-18T02:22:46;7.60;84.90
21493;DHT22;10908;50.690;4.400;2023-11-18T02:25:16;7.60;84.90
21493;DHT22;10908;50.690;4.400;2023-11-18T02:27:43;7.60;85.00
21493;DHT22;10908;50.690;4.400;2023-11-18T02:30:11;7.80;84.90
21493;DHT22;10908;50.690;4.400;2023-11-18T02:32:51;7.90;84.60
21493;DHT22;10908;50.690;4.400;2023-11-18T02:35:25;7.80;84.30
21493;DHT22;10908;50.690;4.400;2023-11-18T02:37:53;7.90;84.20
21493;DHT22;10908;50.690;4.400;2023-11-18T02:42:51;7.90;83.80
21493;DHT22;10908;50.690;4.400;2023-11-18T02:45:18;7.70;84.00
21493;DHT22;10908;50.690;4.400;2023-11-18T02:47:45;7.80;84.10
21493;DHT22;10908;50.690;4.400;2023-11-18T02:50:11;7.80;84.20
21493;DHT22;10908;50.690;4.400;2023-11-18T02:52:40;7.70;84.40
21493;DHT22;10908;50.690;4.400;2023-11-18T02:55:06;7.70;84.50
21493;DHT22;10908;50.690;4.400;2023-11-18T02:57:33;7.70;84.70
21493;DHT22;10908;50.690;4.400;2023-11-18T02:59:59;7.60;84.70
21493;DHT22;10908;50.690;4.400;2023-11-18T03:02:26;7.70;84.80
21493;DHT22;10908;50.690;4.400;2023-11-18T03:04:55;7.70;84.80
21493;DHT22;10908;50.690;4.400;2023-11-18T03:07:20;7.70;84.80
21493;DHT22;10908;50.690;4.400;2023-11-18T03:09:46;7.70;84.80
21493;DHT22;10908;50.690;4.400;2023-11-18T03:12:13;7.80;84.80
21493;DHT22;10908;50.690;4.400;2023-11-18T03:14:39;7.80;84.70
21493;DHT22;10908;50.690;4.400;2023-11-18T03:17:05;7.80;84.60
21493;DHT22;10908;50.690;4.400;2023-11-18T03:19:35;7.90;84.50
21493;DHT22;10908;50.690;4.400;2023-11-18T03:22:01;7.90;84.40
21493;DHT22;10908;50.690;4.400;2023-11-18T03:24:28;7.90;84.10
21493;DHT22;10908;50.690;4.400;2023-11-18T03:26:57;7.90;84.20
21493;DHT22;10908;50.690;4.400;2023-11-18T03:29:23;7.90;84.10
21493;DHT22;10908;50.690;4.400;2023-11-18T03:31:49;8.00;84.00
21493;DHT22;10908;50.690;4.400;2023-11-18T03:34:16;7.90;84.10
21493;DHT22;10908;50.690;4.400;2023-11-18T03:36:44;7.90;84.10
21493;DHT22;10908;50.690;4.400;2023-11-18T03:39:10;7.90;84.30
21493;DHT22;10908;50.690;4.400;2023-11-18T03:41:36;8.00;84.30
21493;DHT22;10908;50.690;4.400;2023-11-18T03:44:04;8.10;84.20
21493;DHT22;10908;50.690;4.400;2023-11-18T03:46:29;8.20;83.90
21493;DHT22;10908;50.690;4.400;2023-11-18T03:48:58;8.10;83.50
21493;DHT22;10908;50.690;4.400;2023-11-18T03:51:24;8.10;83.70
21493;DHT22;10908;50.690;4.400;2023-11-18T03:53:50;8.20;83.70
21493;DHT22;10908;50.690;4.400;2023-11-18T03:56:19;8.10;83.50
21493;DHT22;10908;50.690;4.400;2023-11-18T03:58:45;7.90;83.70
21493;DHT22;10908;50.690;4.400;2023-11-18T04:01:20;7.90;84.00
21493;DHT22;10908;50.690;4.400;2023-11-18T04:03:46;7.90;84.20
21493;DHT22;10908;50.690;4.400;2023-11-18T04:06:11;7.90;84.50
21493;DHT22;10908;50.690;4.400;2023-11-18T04:08:37;7.90;84.50
21493;DHT22;10908;50.690;4.400;2023-11-18T04:11:03;8.00;84.50
21493;DHT22;10908;50.690;4.400;2023-11-18T04:13:29;8.00;84.40
21493;DHT22;10908;50.690;4.400;2023-11-18T04:15:55;8.00;84.40
21493;DHT22;10908;50.690;4.400;2023-11-18T04:18:21;8.00;84.50
21493;DHT22;10908;50.690;4.400;2023-11-18T04:20:48;8.10;84.40
21493;DHT22;10908;50.690;4.400;2023-11-18T04:23:13;8.00;84.30
21493;DHT22;10908;50.690;4.400;2023-11-18T04:25:39;8.00;84.30
21493;DHT22;10908;50.690;4.400;2023-11-18T04:28:05;8.10;84.20
21493;DHT22;10908;50.690;4.400;2023-11-18T04:30:31;8.10;84.20
21493;DHT22;10908;50.690;4.400;2023-11-18T04:32:56;8.10;84.30
21493;DHT22;10908;50.690;4.400;2023-11-18T04:35:22;8.20;84.40
21493;DHT22;10908;50.690;4.400;2023-11-18T04:37:48;8.20;84.10
21493;DHT22;10908;50.690;4.400;2023-11-18T04:40:13;8.10;84.00
21493;DHT22;10908;50.690;4.400;2023-11-18T04:42:39;8.20;84.20
21493;DHT22;10908;50.690;4.400;2023-11-18T04:45:05;8.10;84.10
21493;DHT22;10908;50.690;4.400;2023-11-18T04:47:31;8.20;84.20
21493;DHT22;10908;50.690;4.400;2023-11-18T04:49:57;8.20;84.20
21493;DHT22;10908;50.690;4.400;2023-11-18T04:52:22;8.30;84.10
21493;DHT22;10908;50.690;4.400;2023-11-18T04:54:48;8.10;84.30
21493;DHT22;10908;50.690;4.400;2023-11-18T04:57:14;8.10;84.50
21493;DHT22;10908;50.690;4.400;2023-11-18T04:59:40;8.10;84.70
21493;DHT22;10908;50.690;4.400;2023-11-18T05:02:05;8.10;84.60
21493;DHT22;10908;50.690;4.400;2023-11-18T05:04:31;8.10;84.60
21493;DHT22;10908;50.690;4.400;2023-11-18T05:06:57;8.20;84.80
21493;DHT22;10908;50.690;4.400;2023-11-18T05:09:22;8.20;84.70
21493;DHT22;10908;50.690;4.400;2023-11-18T05:11:48;8.10;84.80
21493;DHT22;10908;50.690;4.400;2023-11-18T05:14:14;8.00;84.90
21493;DHT22;10908;50.690;4.400;2023-11-18T05:16:42;7.90;85.30
21493;DHT22;10908;50.690;4.400;2023-11-18T05:19:07;8.00;85.50
21493;DHT22;10908;50.690;4.400;2023-11-18T05:21:33;8.00;85.60
21493;DHT22;10908;50.690;4.400;2023-11-18T05:23:58;8.00;85.50
21493;DHT22;10908;50.690;4.400;2023-11-18T05:26:24;8.10;85.30
21493;DHT22;10908;50.690;4.400;2023-11-18T05:28:50;8.30;85.10
21493;DHT22;10908;50.690;4.400;2023-11-18T05:31:16;8.40;84.80
21493;DHT22;10908;50.690;4.400;2023-11-18T05:33:43;8.40;84.50
21493;DHT22;10908;50.690;4.400;2023-11-18T05:36:08;8.30;84.50
21493;DHT22;10908;50.690;4.400;2023-11-18T05:38:36;8.30;84.60
21493;DHT22;10908;50.690;4.400;2023-11-18T05:41:02;8.30;84.80
21493;DHT22;10908;50.690;4.400;2023-11-18T05:43:30;8.30;84.90
21493;DHT22;10908;50.690;4.400;2023-11-18T05:46:05;8.30;84.90
21493;DHT22;10908;50.690;4.400;2023-11-18T05:48:54;8.30;85.10
21493;DHT22;10908;50.690;4.400;2023-11-18T05:51:21;8.30;85.00
21493;DHT22;10908;50.690;4.400;2023-11-18T05:53:48;8.30;85.00
21493;DHT22;10908;50.690;4.400;2023-11-18T05:56:14;8.20;85.20
21493;DHT22;10908;50.690;4.400;2023-11-18T05:58:42;8.30;85.20
21493;DHT22;10908;50.690;4.400;2023-11-18T06:01:11;8.40;85.20
21493;DHT22;10908;50.690;4.400;2023-11-18T06:03:38;8.40;85.30
21493;DHT22;10908;50.690;4.400;2023-11-18T06:06:12;8.40;85.20
21493;DHT22;10908;50.690;4.400;2023-11-18T06:08:38;8.50;85.00
21493;DHT22;10908;50.690;4.400;2023-11-18T06:11:07;8.40;84.70
21493;DHT22;10908;50.690;4.400;2023-11-18T06:13:49;8.30;85.20
21493;DHT22;10908;50.690;4.400;2023-11-18T06:16:24;8.40;85.50
21493;DHT22;10908;50.690;4.400;2023-11-18T06:18:52;8.40;85.50
21493;DHT22;10908;50.690;4.400;2023-11-18T06:21:25;8.50;85.40
21493;DHT22;10908;50.690;4.400;2023-11-18T06:23:56;8.50;85.20
21493;DHT22;10908;50.690;4.400;2023-11-18T06:26:23;8.50;85.10
21493;DHT22;10908;50.690;4.400;2023-11-18T06:28:53;8.50;85.00
21493;DHT22;10908;50.690;4.400;2023-11-18T06:31:19;8.50;85.10
21493;DHT22;10908;50.690;4.400;2023-11-18T06:33:46;8.50;85.40
21493;DHT22;10908;50.690;4.400;2023-11-18T06:36:16;8.40;85.50
21493;DHT22;10908;50.690;4.400;2023-11-18T06:38:42;8.40;85.60
21493;DHT22;10908;50.690;4.400;2023-11-18T06:41:12;8.40;85.40
21493;DHT22;10908;50.690;4.400;2023-11-18T06:43:39;8.50;85.50
21493;DHT22;10908;50.690;4.400;2023-11-18T06:46:25;8.50;85.50
21493;DHT22;10908;50.690;4.400;2023-11-18T06:48:52;8.50;85.50
21493;DHT22;10908;50.690;4.400;2023-11-18T06:51:23;8.60;85.70
21493;DHT22;10908;50.690;4.400;2023-11-18T06:53:50;8.60;85.60
21493;DHT22;10908;50.690;4.400;2023-11-18T06:56:17;8.60;85.80
21493;DHT22;10908;50.690;4.400;2023-11-18T06:58:43;8.50;85.70
21493;DHT22;10908;50.690;4.400;2023-11-18T07:01:12;8.60;85.60
21493;DHT22;10908;50.690;4.400;2023-11-18T07:03:39;8.70;85.70
21493;DHT22;10908;50.690;4.400;2023-11-18T07:06:06;8.70;85.60
21493;DHT22;10908;50.690;4.400;2023-11-18T07:08:32;8.80;85.60
21493;DHT22;10908;50.690;4.400;2023-11-18T07:11:00;8.80;85.40
21493;DHT22;10908;50.690;4.400;2023-11-18T07:13:27;8.90;85.20
21493;DHT22;10908;50.690;4.400;2023-11-18T07:15:53;8.80;85.10
21493;DHT22;10908;50.690;4.400;2023-11-18T07:18:23;8.70;85.40
21493;DHT22;10908;50.690;4.400;2023-11-18T07:20:49;8.80;85.60
21493;DHT22;10908;50.690;4.400;2023-11-18T07:23:17;8.70;85.60
21493;DHT22;10908;50.690;4.400;2023-11-18T07:25:43;8.70;85.80
21493;DHT22;10908;50.690;4.400;2023-11-18T07:28:10;8.60;86.10
21493;DHT22;10908;50.690;4.400;2023-11-18T07:30:36;8.50;86.40
21493;DHT22;10908;50.690;4.400;2023-11-18T07:33:03;8.60;86.80
21493;DHT22;10908;50.690;4.400;2023-11-18T07:35:28;8.60;87.10
21493;DHT22;10908;50.690;4.400;2023-11-18T07:37:55;8.60;87.30
21493;DHT22;10908;50.690;4.400;2023-11-18T07:40:22;8.50;87.30
21493;DHT22;10908;50.690;4.400;2023-11-18T07:42:56;8.60;87.60
21493;DHT22;10908;50.690;4.400;2023-11-18T07:45:22;8.60;87.70
21493;DHT22;10908;50.690;4.400;2023-11-18T07:47:52;8.60;87.70
21493;DHT22;10908;50.690;4.400;2023-11-18T07:50:19;8.50;87.90
21493;DHT22;10908;50.690;4.400;2023-11-18T07:52:46;8.60;88.10
21493;DHT22;10908;50.690;4.400;2023-11-18T07:55:13;8.60;88.10
21493;DHT22;10908;50.690;4.400;2023-11-18T07:57:39;8.60;88.30
21493;DHT22;10908;50.690;4.400;2023-11-18T08:00:05;8.50;88.40
21493;DHT22;10908;50.690;4.400;2023-11-18T08:02:38;8.50;88.50
21493;DHT22;10908;50.690;4.400;2023-11-18T08:05:04;8.50;88.60
21493;DHT22;10908;50.690;4.400;2023-11-18T08:07:34;8.60;88.60
21493;DHT22;10908;50.690;4.400;2023-11-18T08:10:04;8.50;88.70
21493;DHT22;10908;50.690;4.400;2023-11-18T08:12:33;8.40;88.90
21493;DHT22;10908;50.690;4.400;2023-11-18T08:14:59;8.50;89.30
21493;DHT22;10908;50.690;4.400;2023-11-18T08:17:25;8.50;89.20
21493;DHT22;10908;50.690;4.400;2023-11-18T08:19:52;8.50;89.20
21493;DHT22;10908;50.690;4.400;2023-11-18T08:22:18;8.60;89.20
21493;DHT22;10908;50.690;4.400;2023-11-18T08:24:47;8.60;89.10
21493;DHT22;10908;50.690;4.400;2023-11-18T08:27:14;8.70;89.00
21493;DHT22;10908;50.690;4.400;2023-11-18T08:29:40;8.70;88.90
21493;DHT22;10908;50.690;4.400;2023-11-18T08:32:06;8.80;88.80
21493;DHT22;10908;50.690;4.400;2023-11-18T08:34:35;8.70;88.80
21493;DHT22;10908;50.690;4.400;2023-11-18T08:37:03;8.80;88.80
21493;DHT22;10908;50.690;4.400;2023-11-18T08:39:29;8.80;88.70
21493;DHT22;10908;50.690;4.400;2023-11-18T08:41:56;8.70;88.60
21493;DHT22;10908;50.690;4.400;2023-11-18T08:44:22;8.80;88.60
21493;DHT22;10908;50.690;4.400;2023-11-18T08:46:49;8.90;88.70
21493;DHT22;10908;50.690;4.400;2023-11-18T08:49:18;8.80;88.60
21493;DHT22;10908;50.690;4.400;2023-11-18T08:51:48;8.80;88.60
21493;DHT22;10908;50.690;4.400;2023-11-18T08:54:15;8.90;88.70
21493;DHT22;10908;50.690;4.400;2023-11-18T08:57:05;9.00;88.40
21493;DHT22;10908;50.690;4.400;2023-11-18T08:59:49;9.00;88.40
21493;DHT22;10908;50.690;4.400;2023-11-18T09:02:17;8.90;88.30
21493;DHT22;10908;50.690;4.400;2023-11-18T09:04:49;8.90;88.40
21493;DHT22;10908;50.690;4.400;2023-11-18T09:07:15;8.90;88.40
21493;DHT22;10908;50.690;4.400;2023-11-18T09:09:41;8.90;88.40
21493;DHT22;10908;50.690;4.400;2023-11-18T09:12:06;8.90;88.40
21493;DHT22;10908;50.690;4.400;2023-11-18T09:14:34;9.00;88.40
21493;DHT22;10908;50.690;4.400;2023-11-18T09:16:59;9.10;88.30
21493;DHT22;10908;50.690;4.400;2023-11-18T09:19:26;9.10;88.10
21493;DHT22;10908;50.690;4.400;2023-11-18T09:21:52;9.00;88.20
21493;DHT22;10908;50.690;4.400;2023-11-18T09:24:18;9.10;88.00
21493;DHT22;10908;50.690;4.400;2023-11-18T09:26:46;9.00;88.20
21493;DHT22;10908;50.690;4.400;2023-11-18T09:29:16;9.10;88.20
21493;DHT22;10908;50.690;4.400;2023-11-18T09:31:46;9.10;88.20
21493;DHT22;10908;50.690;4.400;2023-11-18T09:34:14;9.10;88.20
21493;DHT22;10908;50.690;4.400;2023-11-18T09:36:43;9.00;88.20
21493;DHT22;10908;50.690;4.400;2023-11-18T09:39:09;9.00;88.70
21493;DHT22;10908;50.690;4.400;2023-11-18T09:41:41;9.00;88.80
21493;DHT22;10908;50.690;4.400;2023-11-18T09:44:07;8.90;89.00
21493;DHT22;10908;50.690;4.400;2023-11-18T09:46:36;8.90;89.20
21493;DHT22;10908;50.690;4.400;2023-11-18T09:49:21;9.10;89.10
21493;DHT22;10908;50.690;4.400;2023-11-18T09:51:57;9.10;88.90
21493;DHT22;10908;50.690;4.400;2023-11-18T09:57:04;9.00;89.00
21493;DHT22;10908;50.690;4.400;2023-11-18T10:00:00;9.10;89.10
21493;DHT22;10908;50.690;4.400;2023-11-18T10:02:39;9.10;89.20
21493;DHT22;10908;50.690;4.400;2023-11-18T10:05:07;9.10;89.20
21493;DHT22;10908;50.690;4.400;2023-11-18T10:07:40;9.20;89.20
21493;DHT22;10908;50.690;4.400;2023-11-18T10:10:07;9.20;89.30
21493;DHT22;10908;50.690;4.400;2023-11-18T10:12:41;9.30;89.30
21493;DHT22;10908;50.690;4.400;2023-11-18T10:15:13;9.30;89.30
21493;DHT22;10908;50.690;4.400;2023-11-18T10:17:42;9.30;89.10
21493;DHT22;10908;50.690;4.400;2023-11-18T10:20:26;9.20;89.30
21493;DHT22;10908;50.690;4.400;2023-11-18T10:23:08;9.40;89.40
21493;DHT22;10908;50.690;4.400;2023-11-18T10:25:36;9.40;89.30
21493;DHT22;10908;50.690;4.400;2023-11-18T10:28:06;9.40;89.20
21493;DHT22;10908;50.690;4.400;2023-11-18T10:30:43;9.40;89.70
21493;DHT22;10908;50.690;4.400;2023-11-18T10:33:14;9.50;89.70
21493;DHT22;10908;50.690;4.400;2023-11-18T10:35:49;9.50;89.60
21493;DHT22;10908;50.690;4.400;2023-11-18T10:38:16;9.30;89.60
21493;DHT22;10908;50.690;4.400;2023-11-18T10:40:42;9.30;90.00
21493;DHT22;10908;50.690;4.400;2023-11-18T10:43:09;9.40;90.10
21493;DHT22;10908;50.690;4.400;2023-11-18T10:45:36;9.30;90.10
21493;DHT22;10908;50.690;4.400;2023-11-18T10:48:08;9.40;90.10
21493;DHT22;10908;50.690;4.400;2023-11-18T10:50:34;9.40;90.00
21493;DHT22;10908;50.690;4.400;2023-11-18T10:53:02;9.40;89.90
21493;DHT22;10908;50.690;4.400;2023-11-18T10:55:38;9.30;90.20
21493;DHT22;10908;50.690;4.400;2023-11-18T10:58:04;9.30;90.30
21493;DHT22;10908;50.690;4.400;2023-11-18T11:00:46;9.30;90.20
21493;DHT22;10908;50.690;4.400;2023-11-18T11:03:15;9.40;90.30
21493;DHT22;10908;50.690;4.400;2023-11-18T11:05:41;9.40;90.20
21493;DHT22;10908;50.690;4.400;2023-11-18T11:08:10;9.30;90.10
21493;DHT22;10908;50.690;4.400;2023-11-18T11:10:42;9.30;90.00
21493;DHT22;10908;50.690;4.400;2023-11-18T11:13:09;9.20;90.20
21493;DHT22;10908;50.690;4.400;2023-11-18T11:15:43;9.20;90.40
21493;DHT22;10908;50.690;4.400;2023-11-18T11:18:19;9.30;90.50
21493;DHT22;10908;50.690;4.400;2023-11-18T11:26:52;9.20;90.60
21493;DHT22;10908;50.690;4.400;2023-11-18T11:29:30;9.30;90.70
21493;DHT22;10908;50.690;4.400;2023-11-18T11:34:53;9.30;90.40
21493;DHT22;10908;50.690;4.400;2023-11-18T11:37:20;9.30;90.40
21493;DHT22;10908;50.690;4.400;2023-11-18T11:39:48;9.30;90.40
21493;DHT22;10908;50.690;4.400;2023-11-18T11:42:17;9.30;90.40
21493;DHT22;10908;50.690;4.400;2023-11-18T11:44:47;9.30;90.50
21493;DHT22;10908;50.690;4.400;2023-11-18T11:47:13;9.40;90.50
21493;DHT22;10908;50.690;4.400;2023-11-18T11:49:55;9.40;90.40
21493;DHT22;10908;50.690;4.400;2023-11-18T11:52:33;9.50;90.30
21493;DHT22;10908;50.690;4.400;2023-11-18T11:55:38;9.40;90.30
21493;DHT22;10908;50.690;4.400;2023-11-18T11:58:28;9.40;90.40
21493;DHT22;10908;50.690;4.400;2023-11-18T12:01:15;9.50;90.40
21493;DHT22;10908;50.690;4.400;2023-11-18T12:03:43;9.50;90.40
21493;DHT22;10908;50.690;4.400;2023-11-18T12:06:17;9.60;90.40
21493;DHT22;10908;50.690;4.400;2023-11-18T12:08:46;9.60;90.40
21493;DHT22;10908;50.690;4.400;2023-11-18T12:11:14;9.50;90.40
21493;DHT22;10908;50.690;4.400;2023-11-18T12:14:03;9.50;90.50
21493;DHT22;10908;50.690;4.400;2023-11-18T12:17:01;9.50;90.60
21493;DHT22;10908;50.690;4.400;2023-11-18T12:19:33;9.60;90.80
21493;DHT22;10908;50.690;4.400;2023-11-18T12:22:22;9.60;90.80
21493;DHT22;10908;50.690;4.400;2023-11-18T12:33:03;9.50;91.30
21493;DHT22;10908;50.690;4.400;2023-11-18T12:36:12;9.50;91.30
21493;DHT22;10908;50.690;4.400;2023-11-18T12:46:53;9.50;91.20
21493;DHT22;10908;50.690;4.400;2023-11-18T12:49:22;9.60;91.20
21493;DHT22;10908;50.690;4.400;2023-11-18T12:51:52;9.60;91.30
21493;DHT22;10908;50.690;4.400;2023-11-18T12:54:23;9.50;91.40
21493;DHT22;10908;50.690;4.400;2023-11-18T12:56:55;9.50;91.50
21493;DHT22;10908;50.690;4.400;2023-11-18T12:59:21;9.50;91.50
21493;DHT22;10908;50.690;4.400;2023-11-18T13:01:47;9.60;91.60
21493;DHT22;10908;50.690;4.400;2023-11-18T13:04:22;9.60;91.60
21493;DHT22;10908;50.690;4.400;2023-11-18T13:06:50;9.60;91.40
21493;DHT22;10908;50.690;4.400;2023-11-18T13:09:17;9.70;91.40
21493;DHT22;10908;50.690;4.400;2023-11-18T13:11:58;9.60;91.30
21493;DHT22;10908;50.690;4.400;2023-11-18T13:14:25;9.50;91.40
21493;DHT22;10908;50.690;4.400;2023-11-18T13:16:54;9.60;91.60
21493;DHT22;10908;50.690;4.400;2023-11-18T13:19:25;9.60;91.60
21493;DHT22;10908;50.690;4.400;2023-11-18T13:21:55;9.60;91.60
21493;DHT22;10908;50.690;4.400;2023-11-18T13:24:21;9.50;91.50
21493;DHT22;10908;50.690;4.400;2023-11-18T13:26:47;9.60;91.70
21493;DHT22;10908;50.690;4.400;2023-11-18T13:29:14;9.60;91.60
21493;DHT22;10908;50.690;4.400;2023-11-18T13:31:41;9.70;91.60
21493;DHT22;10908;50.690;4.400;2023-11-18T13:34:08;9.70;91.60
21493;DHT22;10908;50.690;4.400;2023-11-18T13:36:36;9.70;91.50
21493;DHT22;10908;50.690;4.400;2023-11-18T13:39:02;9.70;91.50
21493;DHT22;10908;50.690;4.400;2023-11-18T13:41:31;9.70;91.60
21493;DHT22;10908;50.690;4.400;2023-11-18T13:43:57;9.70;91.40
21493;DHT22;10908;50.690;4.400;2023-11-18T13:46:24;9.70;91.50
21493;DHT22;10908;50.690;4.400;2023-11-18T13:48:51;9.70;91.40
21493;DHT22;10908;50.690;4.400;2023-11-18T13:51:18;9.80;91.50
21493;DHT22;10908;50.690;4.400;2023-11-18T13:53:45;9.80;91.40
21493;DHT22;10908;50.690;4.400;2023-11-18T13:56:12;9.80;91.40
21493;DHT22;10908;50.690;4.400;2023-11-18T13:58:39;9.80;91.40
21493;DHT22;10908;50.690;4.400;2023-11-18T14:01:05;9.80;91.50
21493;DHT22;10908;50.690;4.400;2023-11-18T14:03:32;9.80;91.60
21493;DHT22;10908;50.690;4.400;2023-11-18T14:05:59;9.80;91.60
21493;DHT22;10908;50.690;4.400;2023-11-18T14:08:28;9.90;91.70
21493;DHT22;10908;50.690;4.400;2023-11-18T14:10:55;9.90;91.80
21493;DHT22;10908;50.690;4.400;2023-11-18T14:13:21;9.90;91.80
21493;DHT22;10908;50.690;4.400;2023-11-18T14:15:48;9.90;91.70
21493;DHT22;10908;50.690;4.400;2023-11-18T14:18:14;9.90;91.80
21493;DHT22;10908;50.690;4.400;2023-11-18T14:20:40;9.90;91.90
21493;DHT22;10908;50.690;4.400;2023-11-18T14:23:05;10.00;92.00
21493;DHT22;10908;50.690;4.400;2023-11-18T14:25:32;9.90;92.00
21493;DHT22;10908;50.690;4.400;2023-11-18T14:27:58;9.90;92.10
21493;DHT22;10908;50.690;4.400;2023-11-18T14:30:23;9.90;92.30
21493;DHT22;10908;50.690;4.400;2023-11-18T14:32:52;9.90;92.30
21493;DHT22;10908;50.690;4.400;2023-11-18T14:35:18;10.00;92.30
21493;DHT22;10908;50.690;4.400;2023-11-18T14:37:44;10.10;92.30
21493;DHT22;10908;50.690;4.400;2023-11-18T14:40:14;10.10;92.30
21493;DHT22;10908;50.690;4.400;2023-11-18T14:42:46;10.00;92.20
21493;DHT22;10908;50.690;4.400;2023-11-18T14:45:15;10.10;92.20
21493;DHT22;10908;50.690;4.400;2023-11-18T14:47:42;10.20;92.30
21493;DHT22;10908;50.690;4.400;2023-11-18T14:50:13;10.20;92.20
21493;DHT22;10908;50.690;4.400;2023-11-18T14:52:44;10.20;92.20
21493;DHT22;10908;50.690;4.400;2023-11-18T14:55:11;10.20;92.10
21493;DHT22;10908;50.690;4.400;2023-11-18T14:57:40;10.10;92.20
21493;DHT22;10908;50.690;4.400;2023-11-18T15:00:07;10.10;92.30
21493;DHT22;10908;50.690;4.400;2023-11-18T15:02:45;10.10;92.50
21493;DHT22;10908;50.690;4.400;2023-11-18T15:05:11;10.10;92.60
21493;DHT22;10908;50.690;4.400;2023-11-18T15:07:37;10.20;92.80
21493;DHT22;10908;50.690;4.400;2023-11-18T15:10:03;10.20;92.80
21493;DHT22;10908;50.690;4.400;2023-11-18T15:12:29;10.30;92.80
21493;DHT22;10908;50.690;4.400;2023-11-18T15:14:57;10.30;92.80
21493;DHT22;10908;50.690;4.400;2023-11-18T15:17:25;10.30;92.70
21493;DHT22;10908;50.690;4.400;2023-11-18T15:19:51;10.30;92.80
21493;DHT22;10908;50.690;4.400;2023-11-18T15:22:17;10.30;92.70
21493;DHT22;10908;50.690;4.400;2023-11-18T15:24:42;10.30;92.70
21493;DHT22;10908;50.690;4.400;2023-11-18T15:27:08;10.40;92.70
21493;DHT22;10908;50.690;4.400;2023-11-18T15:29:34;10.40;92.80
21493;DHT22;10908;50.690;4.400;2023-11-18T15:32:04;10.40;92.80
21493;DHT22;10908;50.690;4.400;2023-11-18T15:34:30;10.40;92.90
21493;DHT22;10908;50.690;4.400;2023-11-18T15:36:57;10.40;93.00
21493;DHT22;10908;50.690;4.400;2023-11-18T15:39:26;10.40;93.10
21493;DHT22;10908;50.690;4.400;2023-11-18T15:43:27;10.40;93.30
21493;DHT22;10908;50.690;4.400;2023-11-18T15:45:53;10.40;93.40
21493;DHT22;10908;50.690;4.400;2023-11-18T15:48:21;10.40;93.50
21493;DHT22;10908;50.690;4.400;2023-11-18T15:50:47;10.50;93.50
21493;DHT22;10908;50.690;4.400;2023-11-18T15:53:12;10.50;93.60
21493;DHT22;10908;50.690;4.400;2023-11-18T15:55:39;10.60;93.60
21493;DHT22;10908;50.690;4.400;2023-11-18T15:58:07;10.60;93.60
21493;DHT22;10908;50.690;4.400;2023-11-18T16:00:35;10.60;93.50
21493;DHT22;10908;50.690;4.400;2023-11-18T16:03:02;10.70;93.50
21493;DHT22;10908;50.690;4.400;2023-11-18T16:05:30;10.60;93.40
21493;DHT22;10908;50.690;4.400;2023-11-18T16:07:59;10.70;93.50
21493;DHT22;10908;50.690;4.400;2023-11-18T16:10:26;10.70;93.50
21493;DHT22;10908;50.690;4.400;2023-11-18T16:12:54;10.80;93.50
21493;DHT22;10908;50.690;4.400;2023-11-18T16:15:21;10.70;93.40
21493;DHT22;10908;50.690;4.400;2023-11-18T16:17:47;10.70;93.40
21493;DHT22;10908;50.690;4.400;2023-11-18T16:20:15;10.80;93.40
21493;DHT22;10908;50.690;4.400;2023-11-18T16:22:42;10.80;93.40
21493;DHT22;10908;50.690;4.400;2023-11-18T16:25:13;10.80;93.40